Alcova, Wyoming
Current Conditions -  °F | °C
As of 9:53 PM on Wednesday 22 Oct 2014 (Local Time) from KCPR Reporting Station
Clear Clear  
Wind Chill: 39°   Ceiling: Unl
Heat Index: 45°   Visibility: 10mi
Dew Point: 16°   Wind: 14mph
Humidity: 31%   Direction: 230°SW
Pressure: 30.11"   Gusts: NA
Location:  42.55°N, 106.72°W
Report Text: KCPR 230353Z AUTO 23012KT 10SM CLR 07/M09 A3011 RMK AO2 SLP177 T00721089
Loading
Personal Weather Stations






























Interactive Weather Map
Tropical Storm Tracking
New forecast layout! Learn more

10-Day Weather Forecast

Advertisements
Track Severe Weather on mobile